Current Weather

Luton

Luton, United Kingdom (EGGW)

Report from: Monday, September 26, 2022 2:50 AM BST
Current time: Monday, September 26, 2022 3:14 AM BST

Nearby weather
Weather history
Weather forecast

Present weatherLight rain
Temperature10.0°C (50.0°F)
Wind chill7.5°C (45.6°F)
Dew point7.0°C (44.6°F)
Winds 10 kts (5.1 m/s, 11.5 mph) Southwest (230°)
Visibility6.2 mi. (10 km)
Altimeter29.71 in.Hg (1006 mB)
Relative humidity82 %
Density altitude-207 ft. (-63 m)
Remarks Fully automated report
Flight conditions Visual Meteorological Conditions
Raw dataEGGW 260150Z AUTO 23010KT 9999 -RA //////TCU 10/07 Q1006
An error has occurred. This application may no longer respond until reloaded. Reload 🗙